createdAt,value
2019-02-18T00:00:47.966Z,96910.83
2019-02-18T00:03:14.986Z,96908.48
2019-02-18T00:05:42.026Z,96906.14
2019-02-18T00:08:09.072Z,96911.05
2019-02-18T00:10:36.113Z,96905.73
2019-02-18T00:13:03.158Z,96908.66
2019-02-18T00:15:30.231Z,96913.05
2019-02-18T00:17:57.278Z,96913.50
2019-02-18T00:20:24.320Z,96909.36
2019-02-18T00:22:51.365Z,96916.72
2019-02-18T00:25:18.394Z,96912.91
2019-02-18T00:27:45.443Z,96913.40
2019-02-18T00:30:12.459Z,96911.73
2019-02-18T00:32:39.507Z,96917.69
2019-02-18T00:35:08.352Z,96913.11
2019-02-18T00:37:35.372Z,96919.35
2019-02-18T00:40:02.435Z,96909.45
2019-02-18T00:42:29.509Z,96914.37
2019-02-18T00:44:56.504Z,96917.84
2019-02-18T00:47:23.567Z,96913.20
2019-02-18T00:49:50.593Z,96909.73
2019-02-18T00:52:17.627Z,96905.92
2019-02-18T00:54:44.649Z,96906.41
2019-02-18T00:57:11.668Z,96906.05
2019-02-18T00:59:38.685Z,96902.95
2019-02-18T01:02:05.747Z,96902.90
2019-02-18T01:04:32.773Z,96894.31
2019-02-18T01:06:59.825Z,96901.52
2019-02-18T01:09:26.894Z,96900.66
2019-02-18T01:11:53.951Z,96891.73
2019-02-18T01:14:20.989Z,96893.54
2019-02-18T01:16:48.005Z,96891.87
2019-02-18T01:19:15.030Z,96895.00
2019-02-18T01:21:42.061Z,96890.36
2019-02-18T01:24:09.099Z,96885.23
2019-02-18T01:26:36.133Z,96882.13
2019-02-18T01:29:03.152Z,96882.46
2019-02-18T01:31:30.186Z,96878.03
2019-02-18T01:33:57.213Z,96874.02
2019-02-18T01:36:24.247Z,96871.05
2019-02-18T01:38:51.253Z,96874.16
2019-02-18T01:41:18.275Z,96871.05
2019-02-18T01:43:45.290Z,96868.70
2019-02-18T01:46:12.342Z,96865.20
2019-02-18T01:48:39.450Z,96857.05
2019-02-18T01:51:06.439Z,96857.95
2019-02-18T01:53:33.474Z,96858.41
2019-02-18T01:56:00.498Z,96848.52
2019-02-18T01:58:27.518Z,96854.89
2019-02-18T02:00:54.536Z,96857.52
2019-02-18T02:03:21.567Z,96847.97
2019-02-18T02:05:48.615Z,96849.22
2019-02-18T02:08:15.633Z,96849.36
2019-02-18T02:10:42.686Z,96846.19
2019-02-18T02:13:32.358Z,96845.36
2019-02-18T02:16:00.890Z,96834.83
2019-02-18T02:18:27.925Z,96846.16
2019-02-18T02:20:54.950Z,96838.69
2019-02-18T02:23:21.982Z,96837.85
2019-02-18T02:25:49.018Z,96837.85
2019-02-18T02:28:16.054Z,96836.54
2019-02-18T02:30:43.096Z,96834.05
2019-02-18T02:33:10.123Z,96827.41
2019-02-18T02:35:37.207Z,96835.58
2019-02-18T02:38:07.556Z,96831.74
2019-02-18T02:40:33.150Z,96836.59
2019-02-18T02:43:00.187Z,96829.95
2019-02-18T02:45:27.316Z,96823.31
2019-02-18T02:47:54.382Z,96828.91
2019-02-18T02:50:21.416Z,96822.69
2019-02-18T02:52:48.473Z,96823.65
2019-02-18T02:55:17.763Z,96831.67
2019-02-18T02:57:44.808Z,96826.91
2019-02-18T03:00:12.283Z,96830.84
2019-02-18T03:02:39.327Z,96826.25
2019-02-18T03:05:06.457Z,96829.02
2019-02-18T03:07:33.487Z,96821.47
2019-02-18T03:10:00.522Z,96816.88
2019-02-18T03:12:27.597Z,96821.95
2019-02-18T03:14:54.621Z,96820.64
2019-02-18T03:17:21.692Z,96819.98
2019-02-18T03:19:48.713Z,96818.87
2019-02-18T03:22:15.743Z,96822.05
2019-02-18T03:25:17.228Z,96823.36
2019-02-18T03:27:44.289Z,96817.97
2019-02-18T03:30:40.574Z,96819.48
2019-02-18T03:33:07.849Z,96811.61
2019-02-18T03:35:34.920Z,96823.57
2019-02-18T03:38:01.965Z,96813.20
2019-02-18T03:40:29.020Z,96816.17
2019-02-18T03:42:56.070Z,96813.98
2019-02-18T03:45:23.088Z,96814.13
2019-02-18T03:47:50.130Z,96812.02
2019-02-18T03:50:17.204Z,96815.20
2019-02-18T03:52:44.256Z,96810.50
2019-02-18T03:55:11.519Z,96814.30
2019-02-18T03:57:38.901Z,96809.13
2019-02-18T04:00:06.141Z,96809.86
2019-02-18T04:02:33.197Z,96810.89
2019-02-18T04:05:00.298Z,96810.68
2019-02-18T04:07:27.390Z,96809.02
2019-02-18T04:09:54.414Z,96816.56
2019-02-18T04:12:21.454Z,96811.58
2019-02-18T04:14:48.496Z,96810.89
2019-02-18T04:17:15.559Z,96809.58
2019-02-18T04:19:42.608Z,96809.23
2019-02-18T04:22:09.648Z,96805.91
2019-02-18T04:24:36.686Z,96802.14
2019-02-18T04:27:03.752Z,96802.20
2019-02-18T04:29:30.794Z,96798.55
2019-02-18T04:31:57.832Z,96801.79
2019-02-18T04:34:24.880Z,96809.25
2019-02-18T04:36:51.924Z,96808.87
2019-02-18T04:39:18.982Z,96802.71
2019-02-18T04:41:46.018Z,96809.06
2019-02-18T04:44:13.064Z,96802.50
2019-02-18T04:46:40.088Z,96801.88
2019-02-18T04:49:07.136Z,96795.04
2019-02-18T04:51:34.171Z,96795.73
2019-02-18T04:54:01.202Z,96799.46
2019-02-18T04:56:28.223Z,96792.06
2019-02-18T04:58:55.285Z,96784.18
2019-02-18T05:01:22.320Z,96788.47
2019-02-18T05:03:49.366Z,96787.50
2019-02-18T05:06:16.417Z,96785.84
2019-02-18T05:08:43.467Z,96789.23
2019-02-18T05:11:10.580Z,96789.37
2019-02-18T05:13:37.617Z,96786.66
2019-02-18T05:16:04.673Z,96789.73
2019-02-18T05:18:31.708Z,96786.55
2019-02-18T05:20:58.765Z,96784.89
2019-02-18T05:23:25.801Z,96782.27
2019-02-18T05:25:52.838Z,96772.23
2019-02-18T05:28:19.884Z,96782.13
2019-02-18T05:30:46.894Z,96773.14
2019-02-18T05:33:13.943Z,96780.47
2019-02-18T05:35:40.961Z,96777.98
2019-02-18T05:38:07.989Z,96785.16
2019-02-18T05:40:35.016Z,96784.39
2019-02-18T05:43:02.058Z,96786.06
2019-02-18T05:45:29.109Z,96785.08
2019-02-18T05:47:56.161Z,96793.57
2019-02-18T05:50:23.197Z,96786.96
2019-02-18T05:52:50.246Z,96785.70
2019-02-18T05:55:19.396Z,96780.98
2019-02-18T05:57:46.505Z,96777.80
2019-02-18T06:00:14.227Z,96774.48
2019-02-18T06:02:41.261Z,96776.84
2019-02-18T06:05:08.313Z,96769.93
2019-02-18T06:07:35.340Z,96780.08
2019-02-18T06:10:02.553Z,96779.11
2019-02-18T06:12:29.599Z,96785.54
2019-02-18T06:14:56.650Z,96785.19
2019-02-18T06:17:23.682Z,96789.27
2019-02-18T06:19:50.747Z,96790.92
2019-02-18T06:22:17.787Z,96796.17
2019-02-18T06:24:44.817Z,96796.87
2019-02-18T06:27:11.958Z,96803.16
2019-02-18T06:29:38.987Z,96800.75
2019-02-18T06:32:06.045Z,96806.56
2019-02-18T06:34:33.078Z,96813.69
2019-02-18T06:37:00.135Z,96813.53
2019-02-18T06:39:27.165Z,96809.45
2019-02-18T06:41:54.212Z,96812.64
2019-02-18T06:44:29.856Z,96813.07
2019-02-18T06:47:07.022Z,96818.75
2019-02-18T06:49:34.275Z,96818.14
2019-02-18T06:52:01.428Z,96819.28
2019-02-18T06:54:28.472Z,96813.28
2019-02-18T06:57:08.422Z,96814.37
2019-02-18T06:59:42.367Z,96811.50
2019-02-18T07:02:19.440Z,96815.98
2019-02-18T07:04:52.884Z,96801.99
2019-02-18T07:07:40.520Z,96804.52
2019-02-18T07:10:25.642Z,96808.97
2019-02-18T07:12:53.202Z,96811.20
2019-02-18T07:15:20.246Z,96812.56
2019-02-18T07:17:47.265Z,96816.05
2019-02-18T07:20:14.285Z,96822.57
2019-02-18T07:22:41.346Z,96821.25
2019-02-18T07:25:08.918Z,96816.19
2019-02-18T07:27:35.967Z,96823.20
2019-02-18T07:30:04.138Z,96819.48
2019-02-18T07:32:31.481Z,96826.20
2019-02-18T07:34:58.505Z,96822.34
2019-02-18T07:37:25.536Z,96824.49
2019-02-18T07:40:01.069Z,96827.27
2019-02-18T07:42:21.512Z,96829.17
2019-02-18T07:44:48.558Z,96828.77
2019-02-18T07:47:15.599Z,96821.83
2019-02-18T07:49:42.625Z,96823.14
2019-02-18T07:52:09.691Z,96821.88
2019-02-18T07:54:36.726Z,96816.98
2019-02-18T07:57:03.750Z,96818.05
2019-02-18T07:59:30.995Z,96812.12
2019-02-18T08:01:58.033Z,96804.62
2019-02-18T08:04:25.085Z,96801.38
2019-02-18T08:06:52.116Z,96794.09
2019-02-18T08:09:19.155Z,96790.61
2019-02-18T08:11:46.191Z,96786.08
2019-02-18T08:14:13.240Z,96784.48
2019-02-18T08:16:40.293Z,96784.59
2019-02-18T08:19:07.377Z,96786.70
2019-02-18T08:21:34.392Z,96783.80
2019-02-18T08:24:01.460Z,96782.50
2019-02-18T08:26:28.529Z,96778.22
2019-02-18T08:28:55.555Z,96782.53
2019-02-18T08:31:22.604Z,96778.11
2019-02-18T08:33:49.646Z,96776.98
2019-02-18T08:36:16.727Z,96773.84
2019-02-18T08:38:43.773Z,96767.80
2019-02-18T08:41:10.820Z,96757.62
2019-02-18T08:43:37.859Z,96759.73
2019-02-18T08:46:04.889Z,96765.97
2019-02-18T08:48:31.939Z,96765.81
2019-02-18T08:50:58.984Z,96760.68
2019-02-18T08:53:26.027Z,96769.22
2019-02-18T08:55:53.071Z,96761.48
2019-02-18T08:58:20.118Z,96755.91
2019-02-18T09:00:47.159Z,96754.42
2019-02-18T09:03:14.206Z,96749.95
2019-02-18T09:05:41.240Z,96751.92
2019-02-18T09:08:08.295Z,96756.19
2019-02-18T09:10:35.334Z,96749.55
2019-02-18T09:13:02.415Z,96755.38
2019-02-18T09:15:29.490Z,96753.61
2019-02-18T09:17:56.536Z,96749.51
2019-02-18T09:20:25.640Z,96750.27
2019-02-18T09:23:00.866Z,96751.72
2019-02-18T09:25:35.722Z,96752.92
2019-02-18T09:28:02.774Z,96741.05
2019-02-18T09:30:32.209Z,96744.02
2019-02-18T09:32:59.253Z,96748.69
2019-02-18T09:35:26.288Z,96740.91
2019-02-18T09:37:53.322Z,96739.39
2019-02-18T09:40:20.368Z,96746.80
2019-02-18T09:42:47.408Z,96743.42
2019-02-18T09:45:14.941Z,96739.36
2019-02-18T09:47:41.985Z,96736.77
2019-02-18T09:50:09.112Z,96741.83
2019-02-18T09:52:36.158Z,96737.55
2019-02-18T09:55:03.345Z,96739.43
2019-02-18T09:57:30.374Z,96737.11
2019-02-18T09:59:57.432Z,96736.33
2019-02-18T10:02:24.468Z,96736.47
2019-02-18T10:04:51.518Z,96732.57
2019-02-18T10:07:18.560Z,96732.08
2019-02-18T10:09:45.615Z,96732.63
2019-02-18T10:12:18.325Z,96725.20
2019-02-18T10:14:41.628Z,96717.65
2019-02-18T10:17:08.682Z,96714.91
2019-02-18T10:19:35.763Z,96709.39
2019-02-18T10:22:02.816Z,96704.75
2019-02-18T10:24:29.893Z,96710.96
2019-02-18T10:26:56.967Z,96704.52
2019-02-18T10:29:24.025Z,96704.05
2019-02-18T10:31:51.073Z,96697.78
2019-02-18T10:34:18.111Z,96695.88
2019-02-18T10:36:45.169Z,96697.17
2019-02-18T10:39:12.199Z,96695.14
2019-02-18T10:41:39.231Z,96691.14
2019-02-18T10:44:06.269Z,96678.14
2019-02-18T10:46:33.319Z,96671.94
2019-02-18T10:49:00.365Z,96672.11
2019-02-18T10:51:27.404Z,96668.16
2019-02-18T10:53:54.457Z,96660.16
2019-02-18T10:56:21.494Z,96666.33
2019-02-18T10:58:48.539Z,96653.11
2019-02-18T11:01:15.599Z,96651.26
2019-02-18T11:03:42.663Z,96645.66
2019-02-18T11:06:09.712Z,96644.55
2019-02-18T11:08:36.798Z,96645.19
2019-02-18T11:11:03.849Z,96637.61
2019-02-18T11:13:30.904Z,96638.41
2019-02-18T11:15:57.967Z,96640.65
2019-02-18T11:18:25.236Z,96639.53
2019-02-18T11:20:52.308Z,96635.13
2019-02-18T11:23:19.356Z,96636.25
2019-02-18T11:25:46.601Z,96637.61
2019-02-18T11:28:13.656Z,96634.33
2019-02-18T11:30:40.725Z,96628.77
2019-02-18T11:33:07.791Z,96623.78
2019-02-18T11:35:34.869Z,96620.23
2019-02-18T11:38:01.929Z,96613.91
2019-02-18T11:40:29.000Z,96616.81
2019-02-18T11:42:56.046Z,96608.73
2019-02-18T11:45:23.098Z,96603.15
2019-02-18T11:47:50.172Z,96602.44
2019-02-18T11:50:17.192Z,96597.08
2019-02-18T11:52:44.216Z,96595.73
2019-02-18T11:55:12.582Z,96583.91
2019-02-18T11:57:40.129Z,96581.02
2019-02-18T12:00:08.647Z,96575.53
2019-02-18T12:02:35.690Z,96560.55
2019-02-18T12:05:02.838Z,96560.55
2019-02-18T12:07:29.879Z,96561.67
2019-02-18T12:09:57.046Z,96557.05
2019-02-18T12:12:24.164Z,96552.94
2019-02-18T12:14:51.192Z,96546.88
2019-02-18T12:17:20.768Z,96538.02
2019-02-18T12:19:47.588Z,96530.42
2019-02-18T12:22:14.630Z,96530.42
2019-02-18T12:24:41.689Z,96529.27
2019-02-18T12:27:08.733Z,96529.27
2019-02-18T12:29:35.769Z,96524.97
2019-02-18T12:32:02.846Z,96528.53
2019-02-18T12:34:29.884Z,96521.28
2019-02-18T12:36:56.912Z,96518.48
2019-02-18T12:39:23.960Z,96516.75
2019-02-18T12:41:50.992Z,96504.58
2019-02-18T12:44:18.058Z,96504.80
2019-02-18T12:46:45.103Z,96503.48
2019-02-18T12:49:12.149Z,96507.31
2019-02-18T12:51:39.201Z,96495.13
2019-02-18T12:54:06.463Z,96496.81
2019-02-18T12:56:33.516Z,96493.77
2019-02-18T12:59:00.565Z,96484.58
2019-02-18T13:01:27.874Z,96482.30
2019-02-18T13:03:54.961Z,96473.13
2019-02-18T13:06:21.995Z,96469.98
2019-02-18T13:08:49.065Z,96468.92
2019-02-18T13:11:16.105Z,96467.14
2019-02-18T13:13:43.141Z,96465.72
2019-02-18T13:16:10.312Z,96465.13
2019-02-18T13:18:37.475Z,96465.66
2019-02-18T13:21:04.522Z,96456.39
2019-02-18T13:23:31.588Z,96460.41
2019-02-18T13:25:58.644Z,96448.51
2019-02-18T13:28:25.710Z,96455.47
2019-02-18T13:30:52.781Z,96446.52
2019-02-18T13:33:19.846Z,96446.48
2019-02-18T13:35:48.759Z,96438.07
2019-02-18T13:38:15.952Z,96440.20
2019-02-18T13:40:42.998Z,96434.17
2019-02-18T13:43:10.058Z,96439.77
2019-02-18T13:45:37.144Z,96436.85
2019-02-18T13:48:04.193Z,96437.75
2019-02-18T13:50:31.249Z,96422.80
2019-02-18T13:52:58.305Z,96437.19
2019-02-18T13:55:25.541Z,96427.95
2019-02-18T13:57:52.587Z,96428.20
2019-02-18T14:00:20.285Z,96428.20
2019-02-18T14:02:47.849Z,96412.26
2019-02-18T14:05:15.124Z,96412.26
2019-02-18T14:07:42.197Z,96417.16
2019-02-18T14:10:09.284Z,96417.16
2019-02-18T14:12:36.754Z,96406.70
2019-02-18T14:15:04.245Z,96406.70
2019-02-18T14:17:30.912Z,96411.64
2019-02-18T14:19:57.641Z,96410.12
2019-02-18T14:22:26.930Z,96412.72
2019-02-18T14:24:53.668Z,96411.05
2019-02-18T14:27:20.375Z,96409.11
2019-02-18T14:29:47.361Z,96405.30
2019-02-18T14:32:14.070Z,96406.75
2019-02-18T14:34:40.752Z,96406.77
2019-02-18T14:37:07.350Z,96402.36
2019-02-18T14:39:34.065Z,96407.12
2019-02-18T14:42:00.763Z,96397.53
2019-02-18T14:44:27.444Z,96397.04
2019-02-18T14:46:54.153Z,96394.37
2019-02-18T14:49:21.051Z,96400.09
2019-02-18T14:51:47.769Z,96391.42
2019-02-18T14:54:14.452Z,96397.11
2019-02-18T14:56:41.184Z,96398.19
2019-02-18T14:59:07.858Z,96396.28
2019-02-18T15:01:34.579Z,96391.68
2019-02-18T15:04:01.335Z,96385.21
2019-02-18T15:06:28.022Z,96385.19
2019-02-18T15:08:54.722Z,96379.48
2019-02-18T15:11:21.417Z,96384.06
2019-02-18T15:13:48.137Z,96380.53
2019-02-18T15:16:14.870Z,96384.61
2019-02-18T15:18:41.572Z,96380.80
2019-02-18T15:21:08.297Z,96380.84
2019-02-18T15:23:35.007Z,96375.14
2019-02-18T15:26:02.045Z,96374.34
2019-02-18T15:28:28.769Z,96379.13
2019-02-18T15:30:55.517Z,96366.20
2019-02-18T15:33:22.205Z,96368.09
2019-02-18T15:35:48.937Z,96365.56
2019-02-18T15:38:15.670Z,96362.73
2019-02-18T15:40:42.399Z,96363.41
2019-02-18T15:43:09.111Z,96365.55
2019-02-18T15:45:36.023Z,96360.03
2019-02-18T15:48:02.916Z,96361.58
2019-02-18T15:50:29.647Z,96352.16
2019-02-18T15:52:56.433Z,96353.69
2019-02-18T15:55:23.272Z,96352.09
2019-02-18T15:57:49.966Z,96358.75
2019-02-18T16:00:17.806Z,96356.52
2019-02-18T16:02:44.785Z,96363.47
2019-02-18T16:05:11.478Z,96361.59
2019-02-18T16:07:38.305Z,96357.79
2019-02-18T16:10:04.933Z,96359.56
2019-02-18T16:12:31.641Z,96359.55
2019-02-18T16:14:58.371Z,96366.37
2019-02-18T16:17:25.084Z,96365.77
2019-02-18T16:19:51.797Z,96363.92
2019-02-18T16:22:18.882Z,96365.56
2019-02-18T16:24:45.789Z,96366.25
2019-02-18T16:27:12.497Z,96355.81
2019-02-18T16:29:39.251Z,96352.23
2019-02-18T16:32:05.998Z,96356.22
2019-02-18T16:34:32.828Z,96366.30
2019-02-18T16:36:59.770Z,96361.64
2019-02-18T16:39:26.603Z,96369.71
2019-02-18T16:41:53.642Z,96370.38
2019-02-18T16:44:20.390Z,96370.91
2019-02-18T16:46:47.139Z,96373.30
2019-02-18T16:49:14.169Z,96367.27
2019-02-18T16:51:40.902Z,96363.45
2019-02-18T16:54:07.895Z,96363.97
2019-02-18T16:56:34.534Z,96365.81
2019-02-18T16:59:01.614Z,96372.98
2019-02-18T17:01:28.401Z,96371.69
2019-02-18T17:03:55.100Z,96374.09
2019-02-18T17:06:21.886Z,96379.07
2019-02-18T17:08:48.678Z,96375.42
2019-02-18T17:11:15.502Z,96375.97
2019-02-18T17:13:42.320Z,96379.58
2019-02-18T17:16:09.223Z,96380.02
2019-02-18T17:18:36.113Z,96380.16
2019-02-18T17:21:02.923Z,96382.55
2019-02-18T17:23:29.730Z,96382.49
2019-02-18T17:25:56.447Z,96381.86
2019-02-18T17:28:23.224Z,96380.09
2019-02-18T17:30:50.004Z,96386.10
2019-02-18T17:33:16.857Z,96379.87
2019-02-18T17:35:43.634Z,96380.56
2019-02-18T17:38:10.405Z,96379.75
2019-02-18T17:40:37.147Z,96381.77
2019-02-18T17:43:03.926Z,96382.16
2019-02-18T17:45:30.823Z,96380.63
2019-02-18T17:47:57.569Z,96381.98
2019-02-18T17:50:24.351Z,96384.03
2019-02-18T17:52:51.135Z,96380.73
2019-02-18T17:55:18.503Z,96383.08
2019-02-18T17:57:45.254Z,96385.33
2019-02-18T18:00:13.141Z,96388.13
2019-02-18T18:02:42.209Z,96394.36
2019-02-18T18:05:08.975Z,96395.68
2019-02-18T18:07:35.751Z,96399.57
2019-02-18T18:10:02.565Z,96394.31
2019-02-18T18:12:29.273Z,96390.27
2019-02-18T18:14:56.386Z,96397.27
2019-02-18T18:17:23.150Z,96387.20
2019-02-18T18:19:49.950Z,96388.22
2019-02-18T18:22:18.751Z,96389.22
2019-02-18T18:24:45.512Z,96384.60
2019-02-18T18:27:12.312Z,96387.33
2019-02-18T18:29:39.096Z,96388.87
2019-02-18T18:32:06.277Z,96380.33
2019-02-18T18:34:33.089Z,96384.56
2019-02-18T18:36:59.889Z,96379.66
2019-02-18T18:39:26.684Z,96379.88
2019-02-18T18:41:53.472Z,96382.14
2019-02-18T18:44:20.343Z,96372.91
2019-02-18T18:46:47.148Z,96372.63
2019-02-18T18:49:15.692Z,96368.69
2019-02-18T18:51:43.684Z,96367.61
2019-02-18T18:54:10.524Z,96367.83
2019-02-18T18:56:37.392Z,96371.51
2019-02-18T18:59:04.409Z,96372.58
2019-02-18T19:01:31.242Z,96367.99
2019-02-18T19:03:58.086Z,96366.37
2019-02-18T19:06:25.182Z,96366.59
2019-02-18T19:08:52.576Z,96375.77
2019-02-18T19:11:19.542Z,96369.68
2019-02-18T19:13:46.425Z,96368.50
2019-02-18T19:16:13.372Z,96366.80
2019-02-18T19:18:40.236Z,96368.52
2019-02-18T19:21:07.371Z,96369.31
2019-02-18T19:23:34.698Z,96363.81
2019-02-18T19:26:01.852Z,96371.19
2019-02-18T19:28:29.465Z,96368.54
2019-02-18T19:30:56.435Z,96377.95
2019-02-18T19:33:23.809Z,96371.83
2019-02-18T19:35:50.941Z,96372.37
2019-02-18T19:38:18.234Z,96372.47
2019-02-18T19:40:45.735Z,96373.20
2019-02-18T19:43:14.597Z,96379.95
2019-02-18T19:45:42.667Z,96378.23
2019-02-18T19:48:09.674Z,96383.44
2019-02-18T19:50:36.871Z,96379.89
2019-02-18T19:53:05.147Z,96380.61
2019-02-18T19:55:33.906Z,96388.63
2019-02-18T19:58:04.279Z,96387.66
2019-02-18T20:00:31.756Z,96393.80
2019-02-18T20:03:02.106Z,96396.64
2019-02-18T20:05:29.234Z,96398.97
2019-02-18T20:07:56.513Z,96395.66
2019-02-18T20:10:23.677Z,96392.87
2019-02-18T20:12:51.130Z,96394.53
2019-02-18T20:15:18.296Z,96392.88
2019-02-18T20:17:45.264Z,96388.92
2019-02-18T20:20:12.802Z,96390.56
2019-02-18T20:22:39.928Z,96387.92
2019-02-18T20:25:07.142Z,96391.22
2019-02-18T20:27:34.055Z,96387.75
2019-02-18T20:30:01.207Z,96393.86
2019-02-18T20:32:28.073Z,96393.21
2019-02-18T20:34:55.179Z,96394.88
2019-02-18T20:37:22.073Z,96394.55
2019-02-18T20:39:51.185Z,96393.57
2019-02-18T20:42:18.310Z,96393.29
2019-02-18T20:44:45.530Z,96392.32
2019-02-18T20:47:12.682Z,96392.67
2019-02-18T20:49:41.762Z,96384.46
2019-02-18T20:52:08.739Z,96389.76
2019-02-18T20:54:35.575Z,96389.77
2019-02-18T20:57:02.437Z,96393.42
2019-02-18T20:59:29.649Z,96388.67
2019-02-18T21:01:56.441Z,96391.32
2019-02-18T21:04:23.905Z,96389.35
2019-02-18T21:06:50.735Z,96391.50
2019-02-18T21:09:17.558Z,96399.10
2019-02-18T21:11:44.361Z,96393.69
2019-02-18T21:14:16.208Z,96385.27
2019-02-18T21:16:39.766Z,96395.19
2019-02-18T21:19:06.553Z,96390.41
2019-02-18T21:21:33.427Z,96390.23
2019-02-18T21:24:00.210Z,96393.87
2019-02-18T21:26:27.034Z,96392.71
2019-02-18T21:28:53.792Z,96389.08
2019-02-18T21:31:20.559Z,96390.06
2019-02-18T21:33:47.344Z,96385.77
2019-02-18T21:36:14.111Z,96383.95
2019-02-18T21:38:40.866Z,96377.34
2019-02-18T21:41:07.937Z,96379.13
2019-02-18T21:43:34.711Z,96379.95
2019-02-18T21:46:01.492Z,96381.77
2019-02-18T21:48:28.231Z,96387.05
2019-02-18T21:50:54.993Z,96391.67
2019-02-18T21:53:21.801Z,96388.24
2019-02-18T21:55:48.592Z,96393.20
2019-02-18T21:58:15.403Z,96392.22
2019-02-18T22:00:42.151Z,96396.87
2019-02-18T22:03:08.933Z,96392.92
2019-02-18T22:05:35.762Z,96394.90
2019-02-18T22:08:02.518Z,96395.23
2019-02-18T22:10:29.341Z,96391.59
2019-02-18T22:12:56.089Z,96397.21
2019-02-18T22:15:22.855Z,96394.57
2019-02-18T22:17:49.692Z,96398.86
2019-02-18T22:20:16.570Z,96397.54
2019-02-18T22:22:43.286Z,96402.82
2019-02-18T22:25:10.083Z,96404.14
2019-02-18T22:27:36.798Z,96401.50
2019-02-18T22:30:05.132Z,96395.23
2019-02-18T22:32:31.863Z,96400.84
2019-02-18T22:34:58.515Z,96400.05
2019-02-18T22:37:25.209Z,96397.91
2019-02-18T22:39:52.240Z,96395.43
2019-02-18T22:42:21.018Z,96395.92
2019-02-18T22:44:47.761Z,96399.58
2019-02-18T22:47:14.545Z,96398.92
2019-02-18T22:49:41.235Z,96398.09
2019-02-18T22:52:07.939Z,96397.92
2019-02-18T22:54:34.673Z,96400.56
2019-02-18T22:57:01.362Z,96403.19
2019-02-18T22:59:28.385Z,96406.00
2019-02-18T23:01:55.100Z,96410.45
2019-02-18T23:04:21.858Z,96408.50
2019-02-18T23:06:49.387Z,96413.44
2019-02-18T23:09:16.148Z,96410.95
2019-02-18T23:11:42.853Z,96411.28
2019-02-18T23:14:09.580Z,96402.87
2019-02-18T23:16:36.266Z,96412.27
2019-02-18T23:19:03.280Z,96413.91
2019-02-18T23:21:30.008Z,96416.05
2019-02-18T23:23:56.705Z,96421.49
2019-02-18T23:26:23.435Z,96419.70
2019-02-18T23:28:50.134Z,96425.79
2019-02-18T23:31:16.833Z,96430.56
2019-02-18T23:33:43.536Z,96429.41
2019-02-18T23:36:10.245Z,96435.50
2019-02-18T23:38:36.856Z,96437.31
2019-02-18T23:41:03.571Z,96435.83
2019-02-18T23:43:30.171Z,96435.81
2019-02-18T23:45:56.791Z,96429.91
2019-02-18T23:48:23.400Z,96431.03
2019-02-18T23:50:50.114Z,96421.15
2019-02-18T23:53:16.740Z,96430.55
2019-02-18T23:55:43.379Z,96424.78
2019-02-18T23:58:09.983Z,96426.27
